Time;durP1;ratioP1;P1;durP2;ratioP2;P2;SDS_P1;SDS_P2;PMS_P1;PMS_P2;Temp;Humidity;BMP_temperature;BMP_pressure;BME280_temperature;BME280_humidity;BME280_pressure;Samples;Min_cycle;Max_cycle;Signal;HPM_P1;HPM_P2
2023/06/18 00:00:57;;;;;;;11.37;10.17;;;17.50;6.80;;;;;;4996020;28;20229;-78
2023/06/18 00:03:23;;;;;;;11.40;10.33;;;17.50;3.20;;;;;;4996353;28;20179;-78
2023/06/18 00:05:49;;;;;;;10.73;8.87;;;17.50;1.00;;;;;;4996294;28;20182;-79
2023/06/18 00:08:14;;;;;;;11.83;10.20;;;17.40;1.00;;;;;;4996125;28;20473;-78
2023/06/18 00:10:40;;;;;;;10.33;9.33;;;17.40;3.40;;;;;;4996077;28;20174;-78
2023/06/18 00:13:05;;;;;;;10.30;8.97;;;17.40;5.70;;;;;;4996080;28;20755;-78
2023/06/18 00:15:32;;;;;;;9.60;8.70;;;17.30;1.00;;;;;;4995527;28;20221;-79
2023/06/18 00:17:57;;;;;;;10.10;9.10;;;17.30;14.60;;;;;;5011068;28;20196;-78
2023/06/18 00:20:23;;;;;;;10.53;9.40;;;17.20;12.10;;;;;;4995750;28;20425;-79
2023/06/18 00:22:52;;;;;;;10.47;9.40;;;17.20;20.40;;;;;;4994674;28;20189;-79
2023/06/18 00:25:18;;;;;;;10.13;9.10;;;17.20;27.50;;;;;;4994975;28;20170;-79
2023/06/18 00:27:44;;;;;;;9.80;8.70;;;17.20;33.80;;;;;;4995707;28;20828;-79
2023/06/18 00:30:10;;;;;;;10.57;9.33;;;17.10;44.00;;;;;;4995439;28;20498;-79
2023/06/18 00:32:36;;;;;;;9.93;8.63;;;17.20;45.70;;;;;;4995772;28;20270;-79
2023/06/18 00:35:01;;;;;;;10.70;9.70;;;17.10;77.00;;;;;;4995672;28;20877;-79
2023/06/18 00:37:28;;;;;;;10.77;9.60;;;17.20;47.60;;;;;;4995629;28;20174;-79
2023/06/18 00:39:55;;;;;;;10.73;9.63;;;17.10;40.50;;;;;;4995611;28;20168;-78
2023/06/18 00:42:20;;;;;;;10.83;9.73;;;17.10;25.60;;;;;;4994230;28;20434;-78
2023/06/18 00:44:46;;;;;;;10.50;9.53;;;17.10;19.20;;;;;;4993877;28;20469;-78
2023/06/18 00:47:12;;;;;;;13.20;9.63;;;17.00;27.40;;;;;;4990506;28;21059;-82
2023/06/18 00:49:43;;;;;;;12.10;10.03;;;17.00;32.70;;;;;;4994937;28;20525;-80
2023/06/18 00:52:12;;;;;;;12.67;9.73;;;17.00;26.90;;;;;;4993683;28;20187;-80
2023/06/18 00:54:40;;;;;;;9.60;8.70;;;17.00;58.70;;;;;;4994938;28;20904;-80
2023/06/18 00:57:08;;;;;;;10.50;9.50;;;17.00;86.00;;;;;;4994920;28;20421;-81
2023/06/18 00:59:37;;;;;;;11.07;9.97;;;17.00;44.40;;;;;;4994892;28;20422;-80
2023/06/18 01:02:03;;;;;;;12.07;9.90;;;16.90;29.70;;;;;;4994628;28;20411;-83
2023/06/18 01:04:32;;;;;;;13.43;10.57;;;16.90;25.70;;;;;;4994702;28;20796;-81
2023/06/18 01:06:58;;;;;;;10.30;9.30;;;16.80;32.80;;;;;;4993388;28;21315;-83
2023/06/18 01:09:26;;;;;;;9.50;8.50;;;16.80;29.60;;;;;;4994627;28;20417;-84
2023/06/18 01:11:52;;;;;;;12.00;9.73;;;16.70;38.70;;;;;;4994593;28;20408;-82
2023/06/18 01:14:23;;;;;;;11.00;9.30;;;16.60;59.50;;;;;;4994450;28;20476;-81
2023/06/18 01:16:54;;;;;;;11.87;10.10;;;16.60;73.20;;;;;;4993905;28;20460;-83
2023/06/18 01:19:51;;;;;;;10.37;9.33;;;16.60;95.00;;;;;;4994596;28;20510;-82
2023/06/18 01:22:32;;;;;;;11.40;9.40;;;16.60;99.90;;;;;;4994507;28;20410;-79
2023/06/18 01:25:02;;;;;;;11.40;10.30;;;16.60;99.90;;;;;;4993753;28;20526;-81
2023/06/18 01:27:31;;;;;;;11.70;10.50;;;16.60;99.90;;;;;;4994193;28;20471;-84
2023/06/18 01:29:58;;;;;;;13.90;11.20;;;16.60;99.90;;;;;;4993986;28;20420;-82
2023/06/18 01:32:24;;;;;;;10.97;9.90;;;16.70;99.90;;;;;;4994208;28;20472;-80
2023/06/18 01:34:53;;;;;;;12.03;10.83;;;16.70;99.90;;;;;;4993837;28;20419;-80
2023/06/18 01:37:35;;;;;;;10.90;9.87;;;16.70;99.90;;;;;;4994061;28;20175;-83
2023/06/18 01:40:14;;;;;;;12.97;10.50;;;16.80;99.90;;;;;;4994029;28;20495;-83
2023/06/18 01:43:23;;;;;;;13.30;11.60;;;16.70;99.90;;;;;;4993932;28;20435;-80
2023/06/18 01:45:54;;;;;;;10.83;9.50;;;16.70;99.90;;;;;;4993541;28;20565;-83
2023/06/18 01:48:22;;;;;;;10.40;9.37;;;16.60;99.90;;;;;;4993716;28;20519;-82
2023/06/18 01:50:49;;;;;;;11.77;10.27;;;16.60;99.90;;;;;;4993766;28;21005;-81
2023/06/18 01:53:21;;;;;;;14.13;10.80;;;16.60;99.90;;;;;;4993875;28;20420;-84
2023/06/18 01:55:49;;;;;;;10.30;9.40;;;16.60;99.90;;;;;;4993813;28;20417;-83
2023/06/18 01:58:15;;;;;;;11.90;10.63;;;16.50;99.90;;;;;;4993609;28;20475;-83
2023/06/18 02:00:41;;;;;;;12.13;10.93;;;16.50;99.90;;;;;;4993180;28;20415;-82
2023/06/18 02:03:07;;;;;;;10.50;9.40;;;16.40;99.90;;;;;;4993497;28;20551;-85
2023/06/18 02:05:33;;;;;;;11.73;10.53;;;16.40;99.90;;;;;;4993895;28;20588;-81
2023/06/18 02:07:58;;;;;;;12.00;9.23;;;16.30;99.90;;;;;;4993715;28;20553;-83
2023/06/18 02:10:24;;;;;;;12.10;10.83;;;16.30;99.90;;;;;;4992578;28;20197;-83
2023/06/18 02:12:49;;;;;;;11.57;10.27;;;16.30;99.90;;;;;;4993882;28;20188;-83
2023/06/18 02:15:15;;;;;;;9.40;8.40;;;16.20;99.90;;;;;;4993256;28;20218;-81
2023/06/18 02:17:43;;;;;;;10.40;9.40;;;16.20;96.40;;;;;;4993785;28;20529;-82
2023/06/18 02:20:10;;;;;;;10.73;9.60;;;16.20;97.40;;;;;;4993691;28;20646;-80
2023/06/18 02:22:37;;;;;;;10.80;9.77;;;16.10;99.90;;;;;;4992658;28;20435;-82
2023/06/18 02:25:04;;;;;;;11.77;10.53;;;16.10;99.90;;;;;;4993428;28;20408;-81
2023/06/18 02:27:29;;;;;;;10.60;9.60;;;16.00;99.90;;;;;;4993227;28;20827;-81
2023/06/18 02:29:55;;;;;;;10.00;9.00;;;16.00;99.90;;;;;;4993144;28;20424;-82
2023/06/18 02:32:20;;;;;;;12.57;10.83;;;16.00;99.90;;;;;;4992132;28;20168;-81
2023/06/18 02:34:46;;;;;;;11.27;10.00;;;15.90;99.90;;;;;;4993344;28;20169;-83
2023/06/18 02:37:11;;;;;;;10.37;9.37;;;15.90;99.90;;;;;;4992208;28;20204;-80
2023/06/18 02:39:40;;;;;;;10.53;8.23;;;15.90;99.90;;;;;;4993095;28;20234;-81
2023/06/18 02:42:06;;;;;;;13.67;10.70;;;15.90;99.90;;;;;;4993288;28;20182;-81
2023/06/18 02:44:32;;;;;;;10.53;9.53;;;15.90;99.90;;;;;;4992996;28;20422;-81
2023/06/18 02:47:00;;;;;;;10.57;8.70;;;15.80;99.90;;;;;;4993316;28;20421;-82
2023/06/18 02:49:27;;;;;;;10.63;9.63;;;15.80;99.90;;;;;;4997232;28;20176;-81
2023/06/18 02:51:53;;;;;;;11.53;10.43;;;15.70;99.90;;;;;;4997123;28;20446;-80
2023/06/18 02:54:18;;;;;;;10.90;8.83;;;15.70;99.90;;;;;;4997239;28;20422;-80
2023/06/18 02:56:43;;;;;;;11.80;10.30;;;15.70;99.90;;;;;;4997145;28;20220;-82
2023/06/18 02:59:09;;;;;;;11.50;9.67;;;15.70;99.90;;;;;;4997097;28;20184;-81
2023/06/18 03:01:36;;;;;;;9.97;9.00;;;15.70;99.90;;;;;;4996602;28;20189;-81
2023/06/18 03:04:02;;;;;;;10.00;8.07;;;15.70;99.90;;;;;;4997094;28;20165;-80
2023/06/18 03:06:28;;;;;;;11.23;10.23;;;15.70;99.90;;;;;;4996847;28;20419;-81
2023/06/18 03:08:53;;;;;;;12.23;9.13;;;15.70;99.90;;;;;;4996821;28;20481;-81
2023/06/18 03:11:19;;;;;;;9.13;8.20;;;15.60;99.90;;;;;;4995608;28;20654;-81
2023/06/18 03:13:45;;;;;;;11.93;10.00;;;15.60;99.90;;;;;;4996830;28;20171;-82
2023/06/18 03:16:10;;;;;;;10.20;9.20;;;15.60;99.90;;;;;;4995013;28;20595;-81
2023/06/18 03:18:37;;;;;;;10.73;9.60;;;15.60;99.90;;;;;;4996491;28;20672;-80
2023/06/18 03:21:02;;;;;;;10.07;8.93;;;15.60;99.90;;;;;;4996715;28;20210;-82
2023/06/18 03:23:28;;;;;;;10.83;8.47;;;15.60;99.90;;;;;;4996452;28;20423;-81
2023/06/18 03:25:53;;;;;;;11.90;8.50;;;15.60;99.90;;;;;;4992919;28;20172;-81
2023/06/18 03:28:19;;;;;;;10.40;9.27;;;15.60;99.90;;;;;;4996226;28;20202;-81
2023/06/18 03:30:44;;;;;;;10.00;8.60;;;15.60;99.90;;;;;;4996275;28;20172;-80
2023/06/18 03:33:13;;;;;;;13.90;9.30;;;15.60;99.90;;;;;;4996577;28;20174;-80
2023/06/18 03:35:38;;;;;;;11.03;9.23;;;15.60;99.90;;;;;;4996467;28;20271;-79
2023/06/18 03:38:04;;;;;;;11.60;10.50;;;15.60;99.90;;;;;;4995416;28;20495;-82
2023/06/18 03:40:30;;;;;;;11.67;9.50;;;15.70;99.90;;;;;;4996319;28;20520;-82
2023/06/18 03:42:55;;;;;;;10.90;9.80;;;15.80;99.90;;;;;;4995186;28;20838;-80
2023/06/18 03:45:21;;;;;;;10.53;9.53;;;15.90;99.90;;;;;;4995858;28;20178;-80
2023/06/18 03:47:47;;;;;;;10.13;8.20;;;16.00;99.90;;;;;;4996224;28;20538;-80
2023/06/18 03:50:13;;;;;;;11.13;10.07;;;16.00;99.90;;;;;;4996242;28;20172;-82
2023/06/18 03:52:38;;;;;;;10.83;9.73;;;15.90;99.90;;;;;;4996121;28;20169;-80
2023/06/18 03:55:04;;;;;;;12.40;9.90;;;15.80;99.90;;;;;;4996151;28;20428;-80
2023/06/18 03:57:30;;;;;;;9.93;8.80;;;15.80;99.90;;;;;;4996003;28;20296;-80
2023/06/18 03:59:58;;;;;;;9.40;8.50;;;15.80;99.90;;;;;;4994397;28;20513;-80
2023/06/18 04:02:24;;;;;;;9.63;8.43;;;15.80;99.90;;;;;;4995877;28;20195;-80
2023/06/18 04:04:50;;;;;;;10.60;9.57;;;15.80;99.90;;;;;;4995876;28;20455;-80
2023/06/18 04:07:15;;;;;;;10.83;9.67;;;15.90;99.90;;;;;;4995762;28;20206;-81
2023/06/18 04:09:41;;;;;;;11.77;10.63;;;15.90;99.90;;;;;;4995660;28;20202;-81
2023/06/18 04:12:07;;;;;;;9.97;8.80;;;15.90;99.90;;;;;;4994447;28;20706;-80
2023/06/18 04:14:36;;;;;;;11.07;9.97;;;15.90;99.90;;;;;;4995137;28;20440;-80
2023/06/18 04:17:02;;;;;;;11.90;10.50;;;16.00;99.90;;;;;;4994382;28;20431;-81
2023/06/18 04:19:27;;;;;;;11.33;10.13;;;16.00;99.90;;;;;;4995585;28;20408;-81
2023/06/18 04:21:53;;;;;;;12.60;11.10;;;16.10;99.90;;;;;;4994270;28;20193;-81
2023/06/18 04:24:18;;;;;;;12.40;11.10;;;16.10;99.90;;;;;;4995452;28;20169;-80
2023/06/18 04:26:44;;;;;;;12.37;11.00;;;16.10;99.90;;;;;;4995724;28;20226;-80
2023/06/18 04:29:09;;;;;;;11.97;10.60;;;16.20;99.90;;;;;;4995043;28;20224;-80
2023/06/18 04:31:35;;;;;;;12.63;11.40;;;16.20;99.90;;;;;;4995290;28;20681;-81
2023/06/18 04:34:01;;;;;;;11.77;10.27;;;16.30;99.90;;;;;;4995438;28;20214;-81
2023/06/18 04:36:26;;;;;;;11.57;10.37;;;16.40;99.90;;;;;;4995290;28;20819;-80
2023/06/18 04:38:52;;;;;;;10.77;9.70;;;16.50;99.90;;;;;;4994929;28;20432;-80
2023/06/18 04:41:17;;;;;;;12.67;10.80;;;16.60;99.90;;;;;;4995157;28;20258;-80
2023/06/18 04:43:43;;;;;;;13.23;11.93;;;16.60;99.90;;;;;;4995181;28;20258;-78
2023/06/18 04:46:09;;;;;;;13.03;11.63;;;16.70;99.90;;;;;;4994831;28;20535;-80
2023/06/18 04:48:34;;;;;;;12.73;11.43;;;16.80;99.90;;;;;;4995103;28;20745;-78
2023/06/18 04:51:00;;;;;;;13.90;12.50;;;16.90;99.90;;;;;;4994779;28;20284;-78
2023/06/18 04:53:26;;;;;;;13.77;12.37;;;17.00;99.90;;;;;;4994909;28;20230;-78
2023/06/18 04:55:51;;;;;;;14.57;13.27;;;17.10;99.90;;;;;;4994963;28;20181;-78
2023/06/18 04:58:17;;;;;;;14.80;13.17;;;17.20;99.90;;;;;;4995110;28;20176;-78
2023/06/18 05:00:42;;;;;;;14.47;12.13;;;17.30;99.90;;;;;;4994617;28;20565;-79
2023/06/18 05:03:08;;;;;;;12.67;11.37;;;17.40;99.90;;;;;;4994854;28;20173;-79
2023/06/18 05:05:33;;;;;;;13.20;12.00;;;17.50;99.90;;;;;;4994821;28;20515;-79
2023/06/18 05:07:59;;;;;;;12.77;11.47;;;17.60;99.90;;;;;;4994706;28;20216;-78
2023/06/18 05:10:24;;;;;;;13.73;12.33;;;17.70;99.90;;;;;;4994349;28;20652;-79
2023/06/18 05:12:50;;;;;;;12.53;11.37;;;17.80;99.90;;;;;;4994700;28;20181;-80
2023/06/18 05:15:15;;;;;;;13.00;11.83;;;17.90;99.90;;;;;;4993787;28;20754;-78
2023/06/18 05:17:50;;;;;;;14.10;12.80;;;17.90;99.90;;;;;;4994632;28;20277;-78
2023/06/18 05:20:15;;;;;;;12.53;11.40;;;18.10;99.90;;;;;;4994578;28;20232;-78
2023/06/18 05:22:41;;;;;;;16.20;12.57;;;18.20;99.90;;;;;;4994380;28;20428;-78
2023/06/18 05:25:07;;;;;;;12.47;11.27;;;18.30;99.90;;;;;;4994217;28;20183;-78
2023/06/18 05:27:32;;;;;;;13.63;12.27;;;18.40;99.90;;;;;;4994184;28;20214;-78
2023/06/18 05:29:59;;;;;;;12.17;11.00;;;18.50;99.90;;;;;;4994054;28;20901;-79
2023/06/18 05:32:24;;;;;;;11.47;10.30;;;18.70;99.90;;;;;;4994354;28;20237;-78
2023/06/18 05:34:50;;;;;;;12.30;11.10;;;18.80;99.90;;;;;;4994241;28;20906;-78
2023/06/18 05:37:15;;;;;;;12.80;11.60;;;19.00;99.90;;;;;;4994338;28;20174;-78
2023/06/18 05:39:45;;;;;;;14.13;12.73;;;19.10;99.90;;;;;;4992795;28;20180;-78
2023/06/18 05:42:11;;;;;;;12.80;11.40;;;19.20;99.90;;;;;;4994003;28;20182;-78
2023/06/18 05:44:36;;;;;;;11.87;10.70;;;19.40;99.90;;;;;;4993790;28;20456;-78
2023/06/18 05:47:02;;;;;;;13.70;12.37;;;19.50;99.90;;;;;;4993908;28;20636;-79
2023/06/18 05:49:27;;;;;;;12.77;11.63;;;19.70;50.20;;;;;;4993908;28;20635;-79
2023/06/18 05:51:55;;;;;;;13.53;12.23;;;19.90;1.00;;;;;;4993593;28;20183;-80
2023/06/18 05:54:21;;;;;;;12.93;11.83;;;20.00;1.00;;;;;;4980228;28;20639;-79
2023/06/18 05:56:46;;;;;;;13.10;11.80;;;20.10;1.00;;;;;;4983062;28;20451;-80
2023/06/18 05:59:12;;;;;;;11.93;10.80;;;20.30;1.00;;;;;;4982494;28;20176;-79
2023/06/18 06:01:37;;;;;;;11.83;10.63;;;20.40;1.00;;;;;;4983711;28;20267;-79
2023/06/18 06:04:04;;;;;;;11.57;10.43;;;20.70;1.00;;;;;;4983393;28;20177;-79
2023/06/18 06:06:32;;;;;;;11.10;10.10;;;20.90;1.00;;;;;;4983042;28;20168;-79
2023/06/18 06:08:57;;;;;;;12.40;11.30;;;21.00;1.00;;;;;;4982947;28;20463;-79
2023/06/18 06:11:23;;;;;;;13.90;10.60;;;21.20;1.00;;;;;;4985986;28;20825;-79
2023/06/18 06:13:48;;;;;;;12.00;10.77;;;21.30;1.00;;;;;;4984662;28;20244;-79
2023/06/18 06:16:14;;;;;;;11.23;10.20;;;21.40;1.00;;;;;;4984224;28;20685;-79
2023/06/18 06:18:39;;;;;;;10.13;9.23;;;21.60;99.90;;;;;;4983007;28;20173;-79
2023/06/18 06:21:08;;;;;;;11.07;9.87;;;21.80;99.90;;;;;;4983628;28;20168;-79
2023/06/18 06:23:33;;;;;;;10.00;9.00;;;22.00;1.00;;;;;;4984068;28;20174;-79
2023/06/18 06:25:59;;;;;;;9.03;8.13;;;22.10;99.90;;;;;;4983128;28;20474;-79
2023/06/18 06:28:25;;;;;;;9.93;8.90;;;22.30;99.90;;;;;;4982868;28;20245;-78
2023/06/18 06:30:50;;;;;;;9.37;8.10;;;22.40;99.90;;;;;;4984079;28;20505;-78
2023/06/18 06:33:16;;;;;;;9.60;8.60;;;22.50;99.90;;;;;;5005664;28;20180;-79
2023/06/18 06:35:42;;;;;;;10.07;8.73;;;22.70;99.90;;;;;;4983694;28;20283;-78
2023/06/18 06:38:07;;;;;;;9.33;8.53;;;22.90;1.00;;;;;;4983856;28;20172;-78
2023/06/18 06:40:33;;;;;;;10.57;9.57;;;23.10;1.00;;;;;;4982375;28;20667;-78
2023/06/18 06:42:58;;;;;;;9.23;8.43;;;23.20;1.00;;;;;;4976522;28;20599;-78
2023/06/18 06:45:24;;;;;;;8.37;7.67;;;23.40;99.90;;;;;;4973824;28;20192;-79
2023/06/18 06:47:50;;;;;;;9.10;8.30;;;23.60;99.90;;;;;;4974067;28;20735;-79
2023/06/18 06:50:15;;;;;;;8.30;7.60;;;23.70;1.00;;;;;;4991394;28;20424;-79
2023/06/18 06:52:41;;;;;;;9.13;8.23;;;24.00;1.00;;;;;;4993495;28;20177;-79
2023/06/18 06:55:07;;;;;;;7.43;6.40;;;24.10;1.00;;;;;;4992222;28;20176;-81
2023/06/18 06:57:33;;;;;;;8.00;7.20;;;24.40;99.90;;;;;;4993397;28;20639;-79
2023/06/18 06:59:59;;;;;;;8.83;7.90;;;24.60;1.00;;;;;;4993098;28;20418;-80
2023/06/18 07:02:25;;;;;;;7.90;7.10;;;24.90;99.90;;;;;;4993494;28;20225;-81
2023/06/18 07:04:52;;;;;;;8.27;7.40;;;25.10;99.90;;;;;;4993465;28;20415;-82
2023/06/18 07:07:18;;;;;;;6.80;6.13;;;25.50;99.90;;;;;;4993180;28;20258;-81
2023/06/18 07:09:43;;;;;;;7.50;6.90;;;25.90;99.90;;;;;;4993247;28;20931;-80
2023/06/18 07:12:10;;;;;;;8.37;7.67;;;26.40;99.90;;;;;;4992162;28;20167;-81
2023/06/18 07:14:35;;;;;;;8.40;7.60;;;26.90;99.90;;;;;;4991534;28;20592;-81
2023/06/18 07:17:01;;;;;;;7.60;6.90;;;27.40;84.90;;;;;;4993352;28;20403;-81
2023/06/18 07:19:26;;;;;;;7.20;6.60;;;27.90;38.70;;;;;;4993264;28;20190;-81
2023/06/18 07:21:53;;;;;;;7.43;6.73;;;28.50;20.80;;;;;;4991937;28;20171;-81
2023/06/18 07:24:19;;;;;;;6.60;6.00;;;29.10;8.10;;;;;;4993340;28;20267;-81
2023/06/18 07:26:45;;;;;;;7.50;6.90;;;29.70;1.00;;;;;;4993125;28;20415;-81
2023/06/18 07:29:10;;;;;;;8.60;7.90;;;30.10;1.00;;;;;;4992799;28;20549;-81
2023/06/18 07:31:36;;;;;;;8.10;7.50;;;30.50;1.00;;;;;;4993200;28;20644;-80
2023/06/18 07:34:01;;;;;;;6.90;6.20;;;31.20;1.00;;;;;;4994963;28;20207;-80
2023/06/18 07:36:27;;;;;;;6.60;6.00;;;31.60;1.00;;;;;;4995463;28;20176;-81
2023/06/18 07:38:52;;;;;;;5.23;4.83;;;31.80;1.00;;;;;;4996842;28;20180;-80
2023/06/18 07:41:18;;;;;;;6.50;6.00;;;31.80;1.00;;;;;;4996740;28;20532;-80
2023/06/18 07:43:43;;;;;;;5.80;5.30;;;32.40;1.00;;;;;;4996388;28;20176;-83
2023/06/18 07:46:09;;;;;;;6.00;5.50;;;32.80;1.00;;;;;;4996431;28;20250;-80
2023/06/18 07:48:35;;;;;;;6.37;5.27;;;32.50;1.00;;;;;;4992787;28;20215;-79
2023/06/18 07:51:00;;;;;;;5.07;4.70;;;32.90;1.00;;;;;;4985302;28;20655;-83
2023/06/18 07:53:29;;;;;;;4.90;4.50;;;33.20;1.00;;;;;;4979370;28;20216;-79
2023/06/18 07:55:54;;;;;;;4.27;3.97;;;33.30;1.00;;;;;;4977012;28;20576;-80
2023/06/18 07:58:20;;;;;;;6.20;5.73;;;33.40;1.00;;;;;;4985939;28;20489;-79
2023/06/18 08:00:45;;;;;;;5.43;4.93;;;33.70;1.00;;;;;;4995533;28;20179;-81
2023/06/18 08:03:11;;;;;;;4.50;4.10;;;33.90;1.00;;;;;;4994495;28;20179;-80
2023/06/18 08:05:36;;;;;;;4.37;3.97;;;34.10;1.00;;;;;;4995494;28;20547;-80
2023/06/18 08:08:02;;;;;;;5.40;4.90;;;34.30;1.00;;;;;;4995991;28;20306;-80
2023/06/18 08:10:27;;;;;;;5.30;4.80;;;33.90;1.00;;;;;;4996198;28;20648;-80
2023/06/18 08:12:53;;;;;;;5.03;4.53;;;33.90;1.00;;;;;;4996040;28;20175;-80
2023/06/18 08:15:18;;;;;;;5.33;4.83;;;33.80;1.00;;;;;;4995532;28;20254;-80
2023/06/18 08:17:44;;;;;;;5.53;5.03;;;34.30;1.00;;;;;;4995972;28;20175;-79
2023/06/18 08:20:10;;;;;;;5.10;4.60;;;34.40;1.00;;;;;;4996009;28;20287;-80
2023/06/18 08:22:36;;;;;;;4.30;4.00;;;34.40;1.00;;;;;;4995945;28;20318;-80
2023/06/18 08:25:06;;;;;;;5.00;4.50;;;34.00;1.00;;;;;;4995883;28;20207;-79
2023/06/18 08:27:32;;;;;;;6.53;4.93;;;33.90;1.00;;;;;;4995757;28;20715;-80
2023/06/18 08:29:57;;;;;;;5.80;4.97;;;34.30;1.00;;;;;;4995488;28;20424;-80
2023/06/18 08:32:23;;;;;;;6.40;4.50;;;34.60;1.00;;;;;;4995750;28;20183;-80
2023/06/18 08:34:48;;;;;;;5.37;4.20;;;34.40;1.00;;;;;;4995731;28;20176;-80
2023/06/18 08:37:14;;;;;;;4.63;4.10;;;35.00;1.00;;;;;;4995575;28;20179;-80
2023/06/18 08:39:39;;;;;;;4.80;4.40;;;34.60;1.00;;;;;;4995696;28;20633;-80
2023/06/18 08:42:06;;;;;;;8.33;3.77;;;34.70;1.00;;;;;;4995620;28;20943;-80
2023/06/18 08:44:35;;;;;;;3.83;3.53;;;35.10;1.00;;;;;;4994888;28;20182;-80
2023/06/18 08:47:03;;;;;;;3.80;3.40;;;35.30;1.00;;;;;;4995102;28;20423;-80
2023/06/18 08:49:33;;;;;;;3.20;2.93;;;35.50;1.00;;;;;;4994959;28;20419;-80
2023/06/18 08:52:04;;;;;;;4.00;3.60;;;35.60;1.00;;;;;;4987589;28;20466;-81
2023/06/18 08:54:35;;;;;;;4.27;3.53;;;35.60;1.00;;;;;;4994868;28;20518;-81
2023/06/18 08:57:16;;;;;;;3.50;3.20;;;35.60;1.00;;;;;;4994683;28;20430;-81
2023/06/18 08:59:43;;;;;;;3.70;3.40;;;35.70;1.00;;;;;;4994663;28;20422;-80
2023/06/18 09:02:15;;;;;;;6.00;3.60;;;36.20;1.00;;;;;;4994799;28;20431;-80
2023/06/18 09:04:41;;;;;;;3.70;3.20;;;36.40;1.00;;;;;;4994859;28;20783;-81
2023/06/18 09:07:07;;;;;;;3.90;3.60;;;36.40;1.00;;;;;;4993543;28;20423;-83
2023/06/18 09:09:36;;;;;;;3.37;3.07;;;36.50;1.00;;;;;;4991990;28;20175;-80
2023/06/18 09:12:01;;;;;;;4.83;3.60;;;36.80;1.00;;;;;;4994642;28;20176;-81
2023/06/18 09:14:27;;;;;;;5.17;3.03;;;36.90;1.00;;;;;;4994109;28;20423;-81
2023/06/18 09:16:54;;;;;;;3.90;3.60;;;36.70;1.00;;;;;;4994522;28;20210;-81
2023/06/18 09:19:23;;;;;;;3.20;2.90;;;36.30;1.00;;;;;;4994118;28;20180;-82
2023/06/18 09:21:49;;;;;;;3.10;2.80;;;36.70;1.00;;;;;;4994651;28;20430;-84
2023/06/18 09:24:23;;;;;;;3.67;3.37;;;36.30;1.00;;;;;;4994662;28;20415;-82
2023/06/18 09:27:03;;;;;;;3.47;3.17;;;36.20;1.00;;;;;;4994493;28;20261;-80
2023/06/18 09:29:29;;;;;;;3.13;2.80;;;35.80;1.00;;;;;;4994268;28;20454;-81
2023/06/18 09:31:55;;;;;;;3.03;2.83;;;35.80;1.00;;;;;;4993147;28;20423;-81
2023/06/18 09:34:21;;;;;;;3.73;3.13;;;36.10;1.00;;;;;;4994449;28;20426;-81
2023/06/18 09:36:50;;;;;;;4.40;3.13;;;36.60;1.00;;;;;;4994189;28;20270;-80
2023/06/18 09:39:21;;;;;;;2.23;2.07;;;36.80;1.00;;;;;;4994294;28;20419;-81
2023/06/18 09:41:49;;;;;;;4.20;3.50;;;36.80;1.00;;;;;;4994224;28;20411;-81
2023/06/18 09:44:15;;;;;;;3.30;3.00;;;36.50;1.00;;;;;;4993989;28;20418;-81
2023/06/18 09:46:46;;;;;;;4.47;4.07;;;36.70;1.00;;;;;;4994232;28;20414;-82
2023/06/18 09:49:13;;;;;;;5.87;4.30;;;36.60;1.00;;;;;;4994066;28;20477;-81
2023/06/18 09:51:41;;;;;;;3.60;3.30;;;37.00;1.00;;;;;;4994095;28;20421;-81
2023/06/18 09:54:07;;;;;;;3.77;3.27;;;36.90;1.00;;;;;;4993958;28;21011;-81
2023/06/18 09:56:32;;;;;;;4.33;3.87;;;36.70;1.00;;;;;;4993951;28;20509;-80
2023/06/18 09:58:58;;;;;;;4.33;3.93;;;36.90;1.00;;;;;;4993557;28;20511;-81
2023/06/18 10:01:25;;;;;;;4.10;3.80;;;36.70;1.00;;;;;;4992741;28;20176;-81
2023/06/18 10:03:51;;;;;;;4.23;3.83;;;36.70;1.00;;;;;;4993867;28;20266;-81
2023/06/18 10:06:23;;;;;;;3.70;3.40;;;36.60;1.00;;;;;;4993607;28;20513;-81
2023/06/18 10:08:55;;;;;;;3.23;2.93;;;36.60;1.00;;;;;;4993803;28;20211;-80
2023/06/18 10:11:21;;;;;;;3.80;3.47;;;36.60;1.00;;;;;;4993628;28;20414;-81
2023/06/18 10:13:48;;;;;;;4.37;3.97;;;36.60;1.00;;;;;;4993336;28;20434;-81
2023/06/18 10:16:16;;;;;;;3.73;3.43;;;37.00;1.00;;;;;;4993569;28;20516;-81
2023/06/18 10:19:19;;;;;;;4.93;3.80;;;37.30;1.00;;;;;;4993772;28;20510;-81
2023/06/18 10:21:52;;;;;;;4.00;3.70;;;37.30;1.00;;;;;;4993530;28;20489;-82
2023/06/18 10:24:24;;;;;;;3.80;3.47;;;37.50;1.00;;;;;;4993792;28;20423;-81
2023/06/18 10:26:50;;;;;;;3.67;3.33;;;37.10;1.00;;;;;;4992182;28;20529;-81
2023/06/18 10:29:16;;;;;;;3.13;2.83;;;37.50;1.00;;;;;;4993187;28;20476;-81
2023/06/18 10:31:42;;;;;;;4.90;4.43;;;37.70;1.00;;;;;;4993639;28;20502;-81
2023/06/18 10:34:08;;;;;;;4.67;4.27;;;37.60;1.00;;;;;;4993536;28;20171;-81
2023/06/18 10:36:35;;;;;;;4.43;3.90;;;37.30;1.00;;;;;;4993568;28;20426;-81
2023/06/18 10:39:02;;;;;;;3.83;3.53;;;37.00;1.00;;;;;;4993538;28;20222;-81
2023/06/18 10:41:30;;;;;;;3.50;3.20;;;36.30;1.00;;;;;;4993566;28;20411;-80
2023/06/18 10:43:56;;;;;;;3.57;3.00;;;36.60;1.00;;;;;;4993073;28;20426;-81
2023/06/18 10:46:22;;;;;;;4.30;3.70;;;37.10;1.00;;;;;;4992144;28;20430;-81
2023/06/18 10:49:13;;;;;;;3.47;3.07;;;37.30;1.00;;;;;;4993375;28;20608;-81
2023/06/18 10:51:39;;;;;;;4.00;3.03;;;37.40;1.00;;;;;;4993383;28;20418;-80
2023/06/18 10:54:29;;;;;;;3.87;3.57;;;37.50;1.00;;;;;;4993354;28;20403;-81
2023/06/18 10:56:56;;;;;;;3.70;3.33;;;37.50;1.00;;;;;;4993319;28;20226;-81
2023/06/18 10:59:44;;;;;;;3.87;3.50;;;37.40;1.00;;;;;;4991729;28;20433;-81
2023/06/18 11:02:11;;;;;;;3.40;3.10;;;37.30;1.00;;;;;;4993240;28;20419;-81
2023/06/18 11:04:37;;;;;;;3.00;2.80;;;37.10;1.00;;;;;;4993359;28;20418;-81
2023/06/18 11:07:23;;;;;;;3.10;2.37;;;37.20;1.00;;;;;;4993274;28;20941;-81
2023/06/18 11:09:56;;;;;;;3.00;2.70;;;37.10;1.00;;;;;;4996424;28;20214;-81
2023/06/18 11:12:23;;;;;;;4.00;3.30;;;37.30;1.00;;;;;;4997199;28;20403;-81
2023/06/18 11:15:18;;;;;;;4.73;3.80;;;37.40;1.00;;;;;;4996517;28;20969;-81
2023/06/18 11:17:49;;;;;;;4.20;3.90;;;37.40;1.00;;;;;;4997095;28;20917;-82
2023/06/18 11:20:16;;;;;;;3.73;3.43;;;37.30;1.00;;;;;;4996774;28;20465;-80
2023/06/18 11:22:42;;;;;;;4.17;3.77;;;36.80;1.00;;;;;;4996951;28;20417;-81
2023/06/18 11:25:11;;;;;;;4.77;4.30;;;37.00;1.00;;;;;;4996936;28;20414;-81
2023/06/18 11:27:42;;;;;;;4.87;4.47;;;37.00;1.00;;;;;;4996800;28;20473;-81
2023/06/18 11:30:12;;;;;;;5.57;4.17;;;36.90;1.00;;;;;;4996468;28;20414;-81
2023/06/18 11:32:39;;;;;;;4.20;3.80;;;36.90;1.00;;;;;;4996926;28;20502;-80
2023/06/18 11:35:08;;;;;;;3.60;3.30;;;36.80;1.00;;;;;;4996746;28;20453;-81
2023/06/18 11:37:37;;;;;;;4.07;3.77;;;36.60;1.00;;;;;;4996420;28;20502;-81
2023/06/18 11:40:05;;;;;;;3.50;3.20;;;36.60;1.00;;;;;;4996558;28;20426;-81
2023/06/18 11:42:31;;;;;;;3.03;2.83;;;36.90;1.00;;;;;;4996520;28;20449;-81
2023/06/18 11:45:02;;;;;;;3.20;3.00;;;36.80;1.00;;;;;;4996245;28;20910;-81
2023/06/18 11:47:29;;;;;;;3.77;3.47;;;36.90;1.00;;;;;;4996466;28;20238;-81
2023/06/18 11:49:56;;;;;;;3.30;3.00;;;36.90;1.00;;;;;;4996320;28;20977;-81
2023/06/18 11:52:23;;;;;;;4.60;3.00;;;37.00;1.00;;;;;;4995140;28;20451;-81
2023/06/18 11:54:49;;;;;;;3.70;3.40;;;37.00;1.00;;;;;;4996146;28;20817;-81
2023/06/18 11:57:17;;;;;;;4.00;3.30;;;36.90;1.00;;;;;;4996346;28;20438;-80
2023/06/18 11:59:44;;;;;;;3.80;3.40;;;37.00;1.00;;;;;;4995938;28;20973;-81
2023/06/18 12:02:12;;;;;;;5.10;3.07;;;36.80;1.00;;;;;;4995426;28;20517;-81
2023/06/18 12:04:38;;;;;;;5.17;3.03;;;36.80;1.00;;;;;;4996098;28;20454;-81
2023/06/18 12:07:03;;;;;;;3.93;3.53;;;36.40;1.00;;;;;;4996016;28;20442;-81
2023/06/18 12:09:34;;;;;;;4.60;3.37;;;36.20;1.00;;;;;;4994758;28;20474;-82
2023/06/18 12:12:27;;;;;;;3.27;2.97;;;36.30;1.00;;;;;;4994097;28;20645;-81
2023/06/18 12:15:17;;;;;;;3.60;3.10;;;36.10;1.00;;;;;;4995530;28;20541;-80
2023/06/18 12:18:15;;;;;;;4.60;3.60;;;36.00;1.00;;;;;;4995806;28;20937;-81
2023/06/18 12:20:40;;;;;;;3.50;3.20;;;36.00;1.00;;;;;;4994870;28;20415;-80
2023/06/18 12:23:06;;;;;;;3.80;3.33;;;36.00;1.00;;;;;;4995898;28;20431;-80
2023/06/18 12:25:32;;;;;;;3.03;2.73;;;36.20;1.00;;;;;;4995757;28;20246;-80
2023/06/18 12:28:04;;;;;;;4.27;3.80;;;36.30;1.00;;;;;;4995304;28;20246;-81
2023/06/18 12:30:40;;;;;;;3.73;2.90;;;36.30;1.00;;;;;;4995837;28;20407;-81
2023/06/18 12:33:08;;;;;;;4.20;3.80;;;36.30;1.00;;;;;;4995661;28;20410;-80
2023/06/18 12:35:35;;;;;;;4.00;3.40;;;36.30;1.00;;;;;;4994533;28;20438;-80
2023/06/18 12:38:10;;;;;;;4.37;3.20;;;36.30;1.00;;;;;;4995415;28;20430;-80
2023/06/18 12:40:50;;;;;;;3.47;3.17;;;36.30;1.00;;;;;;4991348;28;20505;-79
2023/06/18 12:43:17;;;;;;;3.50;3.20;;;36.10;1.00;;;;;;4994771;28;20414;-81
2023/06/18 12:45:44;;;;;;;4.13;3.27;;;36.10;1.00;;;;;;4988385;28;20870;-81
2023/06/18 12:48:27;;;;;;;3.87;2.97;;;35.90;1.00;;;;;;4984138;28;20553;-82